Time;durP1;ratioP1;P1;durP2;ratioP2;P2;SDS_P1;SDS_P2;PMS_P1;PMS_P2;Temp;Humidity;BMP_temperature;BMP_pressure;BME280_temperature;BME280_humidity;BME280_pressure;Samples;Min_cycle;Max_cycle;Signal;HPM_P1;HPM_P2
2023/08/23 00:01:55;;;;;;;9.35;5.38;;;17.20;99.90;;;;;;5044949;28;20037;-80
2023/08/23 00:04:20;;;;;;;5.38;4.88;;;17.10;99.90;;;;;;5053547;28;20041;-81
2023/08/23 00:06:46;;;;;;;5.38;4.88;;;17.10;99.90;;;;;;5042575;28;20041;-81
2023/08/23 00:09:13;;;;;;;6.63;5.15;;;17.20;99.90;;;;;;5040825;28;20056;-81
2023/08/23 00:11:39;;;;;;;5.47;4.97;;;17.20;99.90;;;;;;5032246;28;20120;-81
2023/08/23 00:14:05;;;;;;;6.03;5.35;;;17.10;99.90;;;;;;5049037;28;20505;-81
2023/08/23 00:16:31;;;;;;;7.63;5.72;;;17.10;99.90;;;;;;5051312;28;20041;-81
2023/08/23 00:18:56;;;;;;;5.82;5.32;;;17.20;99.90;;;;;;5044119;28;20037;-81
2023/08/23 00:21:22;;;;;;;6.05;5.47;;;17.10;99.90;;;;;;5043577;28;20147;-81
2023/08/23 00:23:48;;;;;;;8.25;5.88;;;17.10;99.90;;;;;;5050926;28;20045;-81
2023/08/23 00:26:14;;;;;;;7.68;5.22;;;17.00;99.90;;;;;;5049634;28;20148;-81
2023/08/23 00:28:40;;;;;;;5.85;5.32;;;17.00;99.90;;;;;;5045120;28;20381;-81
2023/08/23 00:31:06;;;;;;;6.38;5.65;;;17.50;99.90;;;;;;5033990;28;20115;-81
2023/08/23 00:33:32;;;;;;;6.30;5.78;;;17.00;99.90;;;;;;5050623;28;20513;-81
2023/08/23 00:35:58;;;;;;;6.38;5.78;;;16.90;99.90;;;;;;5044543;28;20064;-81
2023/08/23 00:38:24;;;;;;;7.72;6.82;;;16.90;99.90;;;;;;5043741;28;20045;-81
2023/08/23 00:40:49;;;;;;;10.77;7.13;;;16.90;99.90;;;;;;5045895;28;20120;-81
2023/08/23 00:43:15;;;;;;;13.60;6.43;;;16.80;99.90;;;;;;5049977;28;20072;-81
2023/08/23 00:45:42;;;;;;;6.63;5.63;;;16.80;99.90;;;;;;5045030;28;20041;-81
2023/08/23 00:48:11;;;;;;;7.90;5.68;;;16.80;99.90;;;;;;5051945;28;20041;-81
2023/08/23 00:50:40;;;;;;;7.63;6.25;;;16.90;99.90;;;;;;5033878;28;20049;-81
2023/08/23 00:53:08;;;;;;;8.82;6.25;;;16.80;99.90;;;;;;5029198;28;20480;-81
2023/08/23 00:55:35;;;;;;;7.78;6.45;;;16.80;99.90;;;;;;5045818;28;20051;-82
2023/08/23 00:58:01;;;;;;;8.35;6.32;;;16.80;99.90;;;;;;5029330;28;20053;-81
2023/08/23 01:00:27;;;;;;;6.70;6.07;;;16.70;99.90;;;;;;5048967;28;20041;-81
2023/08/23 01:02:53;;;;;;;6.22;5.57;;;16.70;99.90;;;;;;5043027;28;20102;-81
2023/08/23 01:05:24;;;;;;;6.68;6.03;;;16.70;99.90;;;;;;5042220;28;20123;-81
2023/08/23 01:08:11;;;;;;;6.28;5.40;;;16.70;99.90;;;;;;5038653;28;20591;-81
2023/08/23 01:10:52;;;;;;;7.07;6.40;;;16.70;99.90;;;;;;5047081;28;20040;-81
2023/08/23 01:13:47;;;;;;;6.63;5.63;;;16.60;99.90;;;;;;5017967;28;20092;-82
2023/08/23 01:16:15;;;;;;;6.10;5.55;;;16.60;99.90;;;;;;5038793;28;20048;-82
2023/08/23 01:18:42;;;;;;;6.20;5.32;;;16.50;99.90;;;;;;5030113;28;20037;-82
2023/08/23 01:21:11;;;;;;;6.55;5.85;;;16.50;99.90;;;;;;5033684;28;20037;-82
2023/08/23 01:23:37;;;;;;;6.53;5.93;;;16.40;99.90;;;;;;5028122;28;20465;-82
2023/08/23 01:26:03;;;;;;;6.03;5.43;;;16.50;99.90;;;;;;5049810;28;20048;-82
2023/08/23 01:28:28;;;;;;;5.55;5.05;;;16.50;99.90;;;;;;5050435;28;20100;-82
2023/08/23 01:30:57;;;;;;;7.28;6.00;;;16.40;99.90;;;;;;5045886;28;20403;-80
2023/08/23 01:33:37;;;;;;;6.28;4.75;;;16.40;99.90;;;;;;5049059;28;20045;-81
2023/08/23 01:36:32;;;;;;;5.70;5.20;;;16.40;99.90;;;;;;5007659;28;20083;-80
2023/08/23 01:38:58;;;;;;;6.30;5.70;;;16.40;99.90;;;;;;5054562;28;20061;-80
2023/08/23 01:41:24;;;;;;;6.95;5.65;;;16.40;99.90;;;;;;5053674;28;20079;-81
2023/08/23 01:43:52;;;;;;;7.00;5.80;;;16.40;99.90;;;;;;5031361;28;20047;-80
2023/08/23 01:46:18;;;;;;;5.32;4.82;;;16.40;99.90;;;;;;5030811;28;20041;-82
2023/08/23 01:48:43;;;;;;;5.95;5.45;;;16.40;99.90;;;;;;5048484;28;20051;-81
2023/08/23 01:51:09;;;;;;;6.13;5.53;;;16.40;99.90;;;;;;5047393;28;20069;-81
2023/08/23 01:53:34;;;;;;;8.82;6.38;;;16.30;99.90;;;;;;5030668;28;20037;-81
2023/08/23 01:56:00;;;;;;;8.55;6.07;;;16.40;99.90;;;;;;5050217;28;20099;-81
2023/08/23 01:58:26;;;;;;;8.73;7.25;;;16.30;99.90;;;;;;5049124;28;20053;-81
2023/08/23 02:00:54;;;;;;;6.57;6.00;;;16.30;99.90;;;;;;5046502;28;20553;-80
2023/08/23 02:03:20;;;;;;;5.82;5.32;;;16.20;99.90;;;;;;5032305;28;20072;-81
2023/08/23 02:05:47;;;;;;;6.82;5.22;;;16.20;99.90;;;;;;5046870;28;20658;-81
2023/08/23 02:08:14;;;;;;;7.57;4.95;;;16.20;99.90;;;;;;5040564;28;20064;-81
2023/08/23 02:10:39;;;;;;;6.50;5.65;;;16.20;99.90;;;;;;5010477;28;20508;-81
2023/08/23 02:13:06;;;;;;;5.63;5.03;;;16.20;99.90;;;;;;5039169;28;20053;-80
2023/08/23 02:15:32;;;;;;;7.00;5.43;;;16.20;99.90;;;;;;5031281;28;20045;-81
2023/08/23 02:17:58;;;;;;;7.85;6.00;;;16.20;99.90;;;;;;5049554;28;20455;-81
2023/08/23 02:20:24;;;;;;;5.78;5.13;;;16.20;99.90;;;;;;5032901;28;20040;-81
2023/08/23 02:22:49;;;;;;;6.57;5.75;;;16.10;99.90;;;;;;5049067;28;20041;-80
2023/08/23 02:25:15;;;;;;;5.53;4.97;;;16.00;99.90;;;;;;5047574;28;20037;-80
2023/08/23 02:27:40;;;;;;;8.40;5.97;;;16.00;99.90;;;;;;5046029;28;20045;-80
2023/08/23 02:30:07;;;;;;;5.95;5.30;;;16.00;99.90;;;;;;5027832;28;20065;-80
2023/08/23 02:32:33;;;;;;;6.57;5.05;;;16.00;99.90;;;;;;5045579;28;20112;-81
2023/08/23 02:35:00;;;;;;;6.40;5.65;;;16.80;99.90;;;;;;5022964;28;20049;-81
2023/08/23 02:37:25;;;;;;;6.15;5.50;;;16.00;99.90;;;;;;5041382;28;20041;-81
2023/08/23 02:39:51;;;;;;;6.03;5.53;;;16.00;99.90;;;;;;5039394;28;20495;-81
2023/08/23 02:42:17;;;;;;;6.72;6.05;;;15.90;99.90;;;;;;5027898;28;20064;-81
2023/08/23 02:44:42;;;;;;;6.10;5.57;;;16.00;99.90;;;;;;5026328;28;20044;-81
2023/08/23 02:47:08;;;;;;;6.88;6.13;;;16.00;99.90;;;;;;5038084;28;20045;-81
2023/08/23 02:49:33;;;;;;;6.25;5.65;;;16.00;99.90;;;;;;5047637;28;20480;-81
2023/08/23 02:51:59;;;;;;;5.60;5.13;;;15.90;99.90;;;;;;5049089;28;20040;-80
2023/08/23 02:54:25;;;;;;;5.72;4.93;;;15.90;99.90;;;;;;5029732;28;20033;-81
2023/08/23 02:56:50;;;;;;;4.88;4.47;;;15.90;99.90;;;;;;5047327;28;20044;-81
2023/08/23 02:59:16;;;;;;;6.63;4.78;;;15.90;99.90;;;;;;5021660;28;20072;-81
2023/08/23 03:01:42;;;;;;;4.43;4.03;;;15.90;99.90;;;;;;5047713;28;20050;-80
2023/08/23 03:04:07;;;;;;;4.63;4.18;;;15.90;99.90;;;;;;5044024;28;20078;-81
2023/08/23 03:06:33;;;;;;;4.95;4.45;;;15.90;99.90;;;;;;5047886;28;20056;-81
2023/08/23 03:08:59;;;;;;;4.68;4.28;;;15.90;99.90;;;;;;5040859;28;20045;-80
2023/08/23 03:11:24;;;;;;;4.72;4.30;;;15.80;99.90;;;;;;5027552;28;20041;-81
2023/08/23 03:13:50;;;;;;;5.13;4.63;;;15.90;99.90;;;;;;5041489;28;20459;-81
2023/08/23 03:16:15;;;;;;;8.02;4.97;;;15.90;99.90;;;;;;5029285;28;20044;-81
2023/08/23 03:18:41;;;;;;;5.63;5.13;;;15.80;99.90;;;;;;5020625;28;20037;-81
2023/08/23 03:21:07;;;;;;;6.30;5.35;;;15.80;99.90;;;;;;5044684;28;20037;-81
2023/08/23 03:23:33;;;;;;;6.45;5.20;;;15.80;99.90;;;;;;5048140;28;20043;-81
2023/08/23 03:25:58;;;;;;;7.65;6.65;;;15.70;99.90;;;;;;5044944;28;20029;-81
2023/08/23 03:28:24;;;;;;;6.40;5.50;;;15.70;99.90;;;;;;5045909;28;20070;-81
2023/08/23 03:30:50;;;;;;;8.45;6.10;;;15.60;99.90;;;;;;5049990;28;20346;-81
2023/08/23 03:33:15;;;;;;;5.28;4.78;;;15.60;99.90;;;;;;5041772;28;20049;-81
2023/08/23 03:35:41;;;;;;;6.53;5.50;;;15.60;99.90;;;;;;5035851;28;20045;-81
2023/08/23 03:38:07;;;;;;;5.88;5.28;;;15.60;99.90;;;;;;5034858;28;20404;-81
2023/08/23 03:40:39;;;;;;;5.40;4.85;;;16.30;99.90;;;;;;5035313;28;20037;-81
2023/08/23 03:43:05;;;;;;;5.75;5.25;;;15.60;99.90;;;;;;5045201;28;20045;-81
2023/08/23 03:45:31;;;;;;;5.32;4.93;;;15.60;99.90;;;;;;5010329;28;20508;-80
2023/08/23 03:47:57;;;;;;;6.38;4.45;;;15.60;99.90;;;;;;5026236;28;20045;-81
2023/08/23 03:50:22;;;;;;;5.72;5.22;;;15.70;99.90;;;;;;5052347;28;20041;-81
2023/08/23 03:52:48;;;;;;;5.05;4.65;;;15.70;99.90;;;;;;5050374;28;20037;-81
2023/08/23 03:55:14;;;;;;;6.10;5.60;;;15.70;99.90;;;;;;5049654;28;20044;-81
2023/08/23 03:57:39;;;;;;;5.80;5.30;;;15.40;99.90;;;;;;5013975;28;20113;-81
2023/08/23 04:00:06;;;;;;;7.82;5.40;;;15.70;99.90;;;;;;5027662;28;20073;-80
2023/08/23 04:02:32;;;;;;;6.93;6.32;;;15.70;99.90;;;;;;5041205;28;20095;-81
2023/08/23 04:04:57;;;;;;;5.97;5.38;;;16.00;99.90;;;;;;5051394;28;20440;-80
2023/08/23 04:07:23;;;;;;;7.40;5.85;;;15.70;99.90;;;;;;5047404;28;20040;-80
2023/08/23 04:09:48;;;;;;;5.90;5.40;;;15.70;99.90;;;;;;5049820;28;20611;-80
2023/08/23 04:12:14;;;;;;;6.25;5.65;;;15.70;99.90;;;;;;5051911;28;20049;-81
2023/08/23 04:14:40;;;;;;;9.75;6.75;;;15.70;99.90;;;;;;5028620;28;20040;-81
2023/08/23 04:17:05;;;;;;;6.97;6.28;;;15.70;99.90;;;;;;5032565;28;20412;-80
2023/08/23 04:19:31;;;;;;;7.38;6.68;;;15.70;99.90;;;;;;5033627;28;20124;-82
2023/08/23 04:21:57;;;;;;;7.25;6.65;;;15.70;99.90;;;;;;5051289;28;20044;-81
2023/08/23 04:24:22;;;;;;;7.13;6.53;;;15.70;99.90;;;;;;5052116;28;20040;-80
2023/08/23 04:26:48;;;;;;;9.27;7.05;;;15.60;99.90;;;;;;5032583;28;20061;-80
2023/08/23 04:29:14;;;;;;;7.25;6.65;;;15.70;99.90;;;;;;5046357;28;20045;-80
2023/08/23 04:31:39;;;;;;;7.82;7.13;;;15.70;99.90;;;;;;5050609;28;20045;-81
2023/08/23 04:34:05;;;;;;;7.95;7.25;;;15.60;99.90;;;;;;5044425;28;20087;-81
2023/08/23 04:36:31;;;;;;;8.07;7.38;;;15.70;99.90;;;;;;5051699;28;20477;-79
2023/08/23 04:38:57;;;;;;;9.93;7.70;;;15.70;99.90;;;;;;5051423;28;20400;-81
2023/08/23 04:41:23;;;;;;;8.00;7.20;;;15.70;99.90;;;;;;5033201;28;20538;-81
2023/08/23 04:43:49;;;;;;;9.60;8.20;;;15.60;99.90;;;;;;5028038;28;20061;-81
2023/08/23 04:46:17;;;;;;;7.47;6.80;;;15.60;99.90;;;;;;5047523;28;20412;-80
2023/08/23 04:48:43;;;;;;;8.75;7.70;;;15.60;99.90;;;;;;5048654;28;20103;-82
2023/08/23 04:51:09;;;;;;;9.90;8.93;;;15.60;99.90;;;;;;5051392;28;20415;-82
2023/08/23 04:53:37;;;;;;;14.70;12.98;;;15.60;99.90;;;;;;5049342;28;20048;-81
2023/08/23 04:56:04;;;;;;;10.52;9.32;;;15.70;99.90;;;;;;5052171;28;20037;-81
2023/08/23 04:58:31;;;;;;;11.20;9.18;;;15.60;99.90;;;;;;5047153;28;20124;-81
2023/08/23 05:01:06;;;;;;;11.68;9.90;;;15.60;99.90;;;;;;5043274;28;20060;-81
2023/08/23 05:03:33;;;;;;;13.43;11.57;;;16.10;99.90;;;;;;5042391;28;20041;-80
2023/08/23 05:06:01;;;;;;;14.45;11.43;;;15.60;99.90;;;;;;5024279;28;20126;-81
2023/08/23 05:08:29;;;;;;;12.60;10.95;;;15.60;99.90;;;;;;5042990;28;20033;-82
2023/08/23 05:10:55;;;;;;;14.27;11.27;;;15.80;99.90;;;;;;5047315;28;20037;-82
2023/08/23 05:13:22;;;;;;;14.95;11.60;;;15.60;99.90;;;;;;5050279;28;20045;-80
2023/08/23 05:15:55;;;;;;;12.57;11.07;;;15.60;99.90;;;;;;5032967;28;20041;-81
2023/08/23 05:18:22;;;;;;;12.93;11.60;;;15.70;99.90;;;;;;5049086;28;20049;-81
2023/08/23 05:20:56;;;;;;;13.52;10.88;;;15.70;99.90;;;;;;5029476;28;20045;-81
2023/08/23 05:23:22;;;;;;;13.52;12.13;;;15.70;99.90;;;;;;5050952;28;20057;-82
2023/08/23 05:25:50;;;;;;;13.02;11.32;;;15.80;99.90;;;;;;5049700;28;20388;-81
2023/08/23 05:28:17;;;;;;;11.98;10.63;;;15.70;99.90;;;;;;5050619;28;20041;-82
2023/08/23 05:30:43;;;;;;;13.00;11.60;;;15.70;99.90;;;;;;5048912;28;20057;-81
2023/08/23 05:33:09;;;;;;;12.73;11.48;;;15.80;99.90;;;;;;5048785;28;20053;-81
2023/08/23 05:35:35;;;;;;;12.13;10.93;;;16.00;99.90;;;;;;5051373;28;20075;-81
2023/08/23 05:38:01;;;;;;;14.20;10.82;;;15.70;99.90;;;;;;5049517;28;20083;-81
2023/08/23 05:40:27;;;;;;;12.40;11.18;;;15.70;99.90;;;;;;5049487;28;20069;-81
2023/08/23 05:42:52;;;;;;;28.40;23.58;;;15.70;99.90;;;;;;5029008;28;20033;-82
2023/08/23 05:45:18;;;;;;;13.07;11.65;;;15.70;99.90;;;;;;5051048;28;20037;-81
2023/08/23 05:47:43;;;;;;;12.20;10.95;;;15.70;99.90;;;;;;5044746;28;20465;-81
2023/08/23 05:50:09;;;;;;;11.20;10.15;;;15.80;99.90;;;;;;5049928;28;20055;-80
2023/08/23 05:52:35;;;;;;;11.27;10.27;;;15.70;99.90;;;;;;5042611;28;20029;-81
2023/08/23 05:55:00;;;;;;;12.15;10.95;;;15.70;99.90;;;;;;5032796;28;20071;-82
2023/08/23 05:57:26;;;;;;;12.80;11.60;;;15.70;99.90;;;;;;5047935;28;20709;-82
2023/08/23 05:59:52;;;;;;;12.40;11.15;;;15.70;99.90;;;;;;5046216;28;20048;-81
2023/08/23 06:02:17;;;;;;;15.38;11.48;;;15.80;99.90;;;;;;5027495;28;20128;-81
2023/08/23 06:04:44;;;;;;;13.85;12.23;;;15.80;99.90;;;;;;5047168;28;20124;-80
2023/08/23 06:07:09;;;;;;;16.23;13.60;;;15.80;99.90;;;;;;5030377;28;20460;-81
2023/08/23 06:09:35;;;;;;;14.20;12.48;;;15.80;99.90;;;;;;5049303;28;20071;-81
2023/08/23 06:12:01;;;;;;;12.38;11.18;;;15.80;99.90;;;;;;5048521;28;20037;-82
2023/08/23 06:14:26;;;;;;;13.93;12.57;;;15.80;99.90;;;;;;5026477;28;20474;-81
2023/08/23 06:16:52;;;;;;;14.80;13.07;;;15.90;99.90;;;;;;5047024;28;20048;-81
2023/08/23 06:19:18;;;;;;;16.05;14.35;;;15.90;99.90;;;;;;5048604;28;20044;-81
2023/08/23 06:21:45;;;;;;;14.30;12.75;;;15.90;99.90;;;;;;5044166;28;20061;-81
2023/08/23 06:24:10;;;;;;;15.07;13.48;;;16.00;99.90;;;;;;5046273;28;20440;-81
2023/08/23 06:26:36;;;;;;;15.60;14.00;;;16.00;99.90;;;;;;5047590;28;20037;-81
2023/08/23 06:29:03;;;;;;;14.85;13.15;;;16.00;99.90;;;;;;5047938;28;20048;-81
2023/08/23 06:31:29;;;;;;;15.02;13.48;;;16.10;99.90;;;;;;5026981;28;20660;-81
2023/08/23 06:33:55;;;;;;;16.52;14.88;;;16.10;99.90;;;;;;5054391;28;20068;-81
2023/08/23 06:36:20;;;;;;;16.35;14.65;;;16.10;99.90;;;;;;5051380;28;20130;-82
2023/08/23 06:38:47;;;;;;;15.52;14.00;;;16.20;99.90;;;;;;5047805;28;20147;-82
2023/08/23 06:41:13;;;;;;;17.20;15.45;;;16.20;99.90;;;;;;5030792;28;20037;-82
2023/08/23 06:43:38;;;;;;;21.10;16.00;;;16.40;99.90;;;;;;5049001;28;20033;-81
2023/08/23 06:46:04;;;;;;;16.67;14.80;;;16.40;99.90;;;;;;5049073;28;20043;-83
2023/08/23 06:48:29;;;;;;;18.08;16.23;;;16.30;99.90;;;;;;5029775;28;20052;-82
2023/08/23 06:50:55;;;;;;;18.85;16.83;;;16.40;99.90;;;;;;5047509;28;20409;-82
2023/08/23 06:53:21;;;;;;;17.95;15.80;;;16.50;99.90;;;;;;5034639;28;20108;-81
2023/08/23 06:55:47;;;;;;;20.85;15.73;;;16.50;99.90;;;;;;5046268;28;21424;-82
2023/08/23 06:58:12;;;;;;;21.35;16.95;;;16.60;99.90;;;;;;5042795;28;20465;-81
2023/08/23 07:00:38;;;;;;;17.60;15.45;;;16.60;99.90;;;;;;5050628;28;20460;-83
2023/08/23 07:03:04;;;;;;;19.13;15.40;;;16.70;99.90;;;;;;5049266;28;20068;-81
2023/08/23 07:05:33;;;;;;;16.95;15.13;;;16.80;99.90;;;;;;5047697;28;20116;-81
2023/08/23 07:07:59;;;;;;;18.70;16.33;;;16.90;99.90;;;;;;5048484;28;20370;-81
2023/08/23 07:10:25;;;;;;;16.60;14.60;;;16.90;99.90;;;;;;5051971;28;20048;-81
2023/08/23 07:12:50;;;;;;;17.02;15.23;;;17.00;99.90;;;;;;5050530;28;20040;-82
2023/08/23 07:15:16;;;;;;;17.17;15.38;;;17.10;99.90;;;;;;5052782;28;20049;-81
2023/08/23 07:17:42;;;;;;;17.63;13.60;;;17.10;99.90;;;;;;5050093;28;20044;-81
2023/08/23 07:20:09;;;;;;;18.67;13.20;;;17.20;99.90;;;;;;5050803;28;20048;-81
2023/08/23 07:22:35;;;;;;;15.90;12.45;;;17.20;99.90;;;;;;5052159;28;20045;-83
2023/08/23 07:25:01;;;;;;;12.98;11.70;;;17.30;99.90;;;;;;5046423;28;20040;-87
2023/08/23 07:27:26;;;;;;;15.35;12.68;;;17.40;99.90;;;;;;5011417;28;20843;-85
2023/08/23 07:29:52;;;;;;;17.30;11.45;;;17.40;99.90;;;;;;5051860;28;20053;-83
2023/08/23 07:32:17;;;;;;;11.52;10.32;;;17.50;99.90;;;;;;5028690;28;20045;-81
2023/08/23 07:34:43;;;;;;;12.77;10.80;;;17.60;99.90;;;;;;5049576;28;20554;-82
2023/08/23 07:37:09;;;;;;;12.20;11.05;;;17.60;99.90;;;;;;5049325;28;20056;-82
2023/08/23 07:39:35;;;;;;;11.93;10.70;;;17.70;99.90;;;;;;5053182;28;20037;-82
2023/08/23 07:42:00;;;;;;;14.10;11.25;;;17.80;99.90;;;;;;5043053;28;20116;-82
2023/08/23 07:44:26;;;;;;;15.30;11.48;;;17.90;99.90;;;;;;5034201;28;20663;-82
2023/08/23 07:46:51;;;;;;;14.18;12.07;;;17.90;99.90;;;;;;5033917;28;20056;-83
2023/08/23 07:49:17;;;;;;;13.73;12.32;;;18.00;99.90;;;;;;5045865;28;20084;-83
2023/08/23 07:51:43;;;;;;;12.55;10.55;;;18.10;99.90;;;;;;5051669;28;20128;-82
2023/08/23 07:54:10;;;;;;;15.88;12.90;;;18.20;99.90;;;;;;5033966;28;20120;-82
2023/08/23 07:56:36;;;;;;;33.92;19.27;;;18.20;99.90;;;;;;5046520;28;20053;-83
2023/08/23 07:59:02;;;;;;;44.33;22.40;;;18.20;99.90;;;;;;5023896;28;20052;-83
2023/08/23 08:01:27;;;;;;;16.15;13.43;;;18.30;99.90;;;;;;5026170;28;20037;-82
2023/08/23 08:03:53;;;;;;;99.38;37.17;;;18.40;99.90;;;;;;5042903;28;20041;-83
2023/08/23 08:06:19;;;;;;;58.10;27.08;;;18.40;99.90;;;;;;5026275;28;20068;-82
2023/08/23 08:08:45;;;;;;;36.10;20.45;;;18.50;99.90;;;;;;5044493;28;20041;-83
2023/08/23 08:11:12;;;;;;;28.02;14.05;;;18.60;99.90;;;;;;5045060;28;20037;-82
2023/08/23 08:13:38;;;;;;;14.40;10.93;;;18.60;99.90;;;;;;5051424;28;20043;-83
2023/08/23 08:16:09;;;;;;;17.00;12.48;;;18.80;99.90;;;;;;5046057;28;20120;-82
2023/08/23 08:18:35;;;;;;;14.20;10.70;;;18.80;99.90;;;;;;5026092;28;20492;-82
2023/08/23 08:21:01;;;;;;;13.52;11.57;;;18.90;99.90;;;;;;5042817;28;20067;-82
2023/08/23 08:23:28;;;;;;;14.95;11.63;;;19.00;99.90;;;;;;5039371;28;20795;-85
2023/08/23 08:25:54;;;;;;;14.85;10.98;;;19.00;99.90;;;;;;5041689;28;20305;-83
2023/08/23 08:28:19;;;;;;;17.02;12.15;;;19.00;99.90;;;;;;5043872;28;20481;-86
2023/08/23 08:30:46;;;;;;;12.75;10.50;;;19.00;99.90;;;;;;5043883;28;20054;-85
2023/08/23 08:33:11;;;;;;;17.90;12.07;;;19.10;99.90;;;;;;5008289;28;20067;-86
2023/08/23 08:35:37;;;;;;;27.95;17.08;;;19.40;99.90;;;;;;5023278;28;20135;-86
2023/08/23 08:38:03;;;;;;;20.83;14.73;;;19.20;99.90;;;;;;5045662;28;20132;-86
2023/08/23 08:40:29;;;;;;;24.23;15.57;;;19.20;99.90;;;;;;5039080;28;20107;-86
2023/08/23 08:42:55;;;;;;;15.85;13.77;;;19.20;99.90;;;;;;5028509;28;20080;-86
2023/08/23 08:45:21;;;;;;;17.15;14.05;;;19.20;99.90;;;;;;5043780;28;20111;-86
2023/08/23 08:47:47;;;;;;;15.90;13.65;;;19.20;99.90;;;;;;5041978;28;20047;-86
2023/08/23 08:50:13;;;;;;;18.00;14.43;;;19.30;99.90;;;;;;5007622;28;20092;-86
2023/08/23 08:52:49;;;;;;;16.33;13.75;;;19.40;99.90;;;;;;5041967;28;20485;-85
2023/08/23 08:55:15;;;;;;;16.38;14.07;;;19.50;99.90;;;;;;5024254;28;20049;-86
2023/08/23 08:57:43;;;;;;;18.52;13.70;;;19.50;99.90;;;;;;5043284;28;20056;-85
2023/08/23 09:00:09;;;;;;;16.10;12.93;;;19.50;99.90;;;;;;5042650;28;20472;-85
2023/08/23 09:02:37;;;;;;;14.50;12.50;;;19.50;99.90;;;;;;5042447;28;20168;-85
2023/08/23 09:05:05;;;;;;;22.83;16.35;;;19.60;99.90;;;;;;5042865;28;20048;-85
2023/08/23 09:07:31;;;;;;;31.50;17.83;;;19.70;99.90;;;;;;5040790;28;20044;-85
2023/08/23 09:09:57;;;;;;;24.48;15.13;;;19.80;99.90;;;;;;5041169;28;20040;-85
2023/08/23 09:12:24;;;;;;;21.27;14.07;;;19.90;99.90;;;;;;5042780;28;20053;-85
2023/08/23 09:14:50;;;;;;;19.10;13.88;;;20.00;99.90;;;;;;5040955;28;20037;-84
2023/08/23 09:17:21;;;;;;;26.65;16.90;;;20.10;99.90;;;;;;5024918;28;20365;-85
2023/08/23 09:19:47;;;;;;;14.85;13.02;;;20.20;99.90;;;;;;5043609;28;20166;-82
2023/08/23 09:22:21;;;;;;;27.02;15.85;;;20.30;99.90;;;;;;5040565;28;20630;-82
2023/08/23 09:24:47;;;;;;;15.48;11.25;;;20.30;99.90;;;;;;5028844;28;20098;-83
2023/08/23 09:27:13;;;;;;;14.27;11.93;;;20.40;99.90;;;;;;5049340;28;20045;-83
2023/08/23 09:29:39;;;;;;;14.65;12.50;;;20.50;99.90;;;;;;5048147;28;20049;-83
2023/08/23 09:32:05;;;;;;;16.25;12.30;;;20.50;99.90;;;;;;5027705;28;20110;-81
2023/08/23 09:34:30;;;;;;;16.65;13.32;;;20.60;99.90;;;;;;5049296;28;20076;-81
2023/08/23 09:37:08;;;;;;;16.67;12.38;;;20.70;99.90;;;;;;5028003;28;20825;-81
2023/08/23 09:39:34;;;;;;;16.45;12.40;;;20.80;99.90;;;;;;5048747;28;20055;-84
2023/08/23 09:42:05;;;;;;;19.13;12.82;;;20.80;99.90;;;;;;5051686;28;20033;-86
2023/08/23 09:44:43;;;;;;;20.60;14.80;;;20.80;99.90;;;;;;5032225;28;20087;-82
2023/08/23 09:47:19;;;;;;;14.18;12.70;;;20.80;99.90;;;;;;5042665;28;20096;-81
2023/08/23 09:49:44;;;;;;;16.33;11.65;;;20.80;99.90;;;;;;5054021;28;20048;-81
2023/08/23 09:52:11;;;;;;;14.68;9.88;;;20.90;99.90;;;;;;5055539;28;20041;-81
2023/08/23 09:54:59;;;;;;;14.93;10.30;;;21.00;99.90;;;;;;5033163;28;20109;-81
2023/08/23 09:57:25;;;;;;;14.82;10.30;;;21.10;99.90;;;;;;5031340;28;20126;-82
2023/08/23 09:59:51;;;;;;;13.82;10.30;;;21.20;99.90;;;;;;5048294;28;20059;-81
2023/08/23 10:02:18;;;;;;;23.58;12.48;;;21.20;99.90;;;;;;5031647;28;20038;-81
2023/08/23 10:04:45;;;;;;;12.63;8.70;;;21.20;99.90;;;;;;5049987;28;20056;-81
2023/08/23 10:07:13;;;;;;;19.63;9.88;;;21.20;99.90;;;;;;4698350;28;9999751;-82
2023/08/23 10:09:44;;;;;;;26.63;11.85;;;21.20;99.90;;;;;;5054385;28;20739;-83
2023/08/23 10:12:11;;;;;;;24.88;12.25;;;21.20;99.90;;;;;;5022508;28;20056;-82
2023/08/23 10:14:42;;;;;;;15.05;10.35;;;21.30;99.90;;;;;;5040635;28;20045;-83
2023/08/23 10:17:11;;;;;;;12.75;9.13;;;21.30;99.90;;;;;;5044224;28;20045;-83
2023/08/23 10:19:37;;;;;;;16.45;10.15;;;21.30;99.90;;;;;;5046214;28;20056;-80
2023/08/23 10:22:03;;;;;;;12.38;8.48;;;21.40;99.90;;;;;;5037446;28;20891;-83
2023/08/23 10:24:33;;;;;;;12.98;10.15;;;21.50;99.90;;;;;;5046702;28;20160;-84
2023/08/23 10:27:07;;;;;;;16.65;9.60;;;21.50;99.90;;;;;;5036554;28;20051;-83
2023/08/23 10:29:34;;;;;;;21.40;10.85;;;21.60;99.90;;;;;;5045486;28;20040;-83
2023/08/23 10:32:05;;;;;;;32.53;14.45;;;21.70;99.90;;;;;;5028919;28;20428;-81
2023/08/23 10:34:34;;;;;;;21.85;12.15;;;21.80;99.90;;;;;;5041475;28;20056;-80
2023/08/23 10:37:00;;;;;;;17.58;8.98;;;21.80;99.90;;;;;;5030313;28;20075;-81
2023/08/23 10:39:27;;;;;;;20.77;10.52;;;21.90;99.90;;;;;;5046778;28;20041;-82
2023/08/23 10:41:56;;;;;;;21.77;11.88;;;22.00;99.90;;;;;;5046013;28;20076;-81
2023/08/23 10:44:24;;;;;;;11.73;7.25;;;22.10;99.90;;;;;;5047171;28;20171;-82
2023/08/23 10:46:51;;;;;;;9.23;5.93;;;22.20;99.90;;;;;;5042544;28;20133;-81
2023/08/23 10:49:20;;;;;;;15.13;8.15;;;22.30;99.90;;;;;;5025921;28;20615;-82
2023/08/23 10:51:47;;;;;;;10.68;7.00;;;22.30;99.90;;;;;;5026119;28;20082;-80
2023/08/23 10:54:13;;;;;;;10.50;7.50;;;22.40;99.90;;;;;;5036208;28;20030;-80
2023/08/23 10:56:39;;;;;;;11.80;5.88;;;22.40;99.90;;;;;;5042785;28;20084;-82
2023/08/23 10:59:08;;;;;;;9.27;4.63;;;22.40;99.90;;;;;;5045760;28;20071;-83
2023/08/23 11:01:38;;;;;;;23.17;10.65;;;22.40;99.90;;;;;;5047772;28;20687;-83
2023/08/23 11:04:07;;;;;;;43.53;15.43;;;22.40;99.90;;;;;;5039802;28;20049;-81
2023/08/23 11:06:33;;;;;;;23.25;11.18;;;22.40;99.90;;;;;;5029489;28;20037;-82
2023/08/23 11:08:59;;;;;;;16.17;8.48;;;22.50;99.90;;;;;;5041713;28;20239;-82
2023/08/23 11:11:31;;;;;;;20.15;10.90;;;22.50;99.90;;;;;;5046508;28;20497;-80
2023/08/23 11:13:57;;;;;;;12.45;5.53;;;22.50;99.90;;;;;;5027369;28;20524;-81
2023/08/23 11:16:23;;;;;;;7.82;5.28;;;22.50;99.90;;;;;;5040740;28;20041;-81
2023/08/23 11:18:52;;;;;;;10.73;5.30;;;22.50;99.90;;;;;;5047049;28;20130;-81
2023/08/23 11:21:18;;;;;;;6.75;5.38;;;22.50;99.90;;;;;;5035241;28;20029;-81
2023/08/23 11:23:44;;;;;;;9.48;4.97;;;22.50;99.90;;;;;;5045402;28;20068;-81
2023/08/23 11:26:10;;;;;;;8.18;4.90;;;22.50;99.90;;;;;;5050615;28;20076;-82
2023/08/23 11:28:35;;;;;;;6.55;4.00;;;22.50;99.90;;;;;;5052448;28;20063;-85
2023/08/23 11:31:08;;;;;;;5.75;3.08;;;22.60;99.90;;;;;;5031467;28;20045;-84
2023/08/23 11:33:35;;;;;;;7.40;3.23;;;22.80;99.90;;;;;;5050189;28;20100;-85
2023/08/23 11:36:04;;;;;;;6.88;1.95;;;23.00;99.90;;;;;;5045527;28;20072;-84
2023/08/23 11:38:30;;;;;;;5.13;2.47;;;23.10;99.90;;;;;;5042204;28;20417;-85
2023/08/23 11:40:59;;;;;;;5.90;1.92;;;23.20;99.90;;;;;;5036020;28;20435;-83
2023/08/23 11:43:29;;;;;;;5.78;1.98;;;23.30;99.90;;;;;;5045203;28;20041;-85
2023/08/23 11:45:55;;;;;;;10.80;2.55;;;23.40;99.90;;;;;;5035687;28;20040;-84
2023/08/23 11:48:25;;;;;;;5.20;1.67;;;23.50;99.90;;;;;;5045524;28;20061;-84
2023/08/23 11:50:51;;;;;;;6.07;2.38;;;23.60;99.90;;;;;;5044181;28;20540;-84
2023/08/23 11:53:17;;;;;;;6.85;1.80;;;23.60;99.90;;;;;;5044812;28;20121;-85
2023/08/23 11:55:43;;;;;;;5.05;1.70;;;23.60;99.90;;;;;;5052971;28;20115;-84
2023/08/23 11:58:12;;;;;;;2.67;1.63;;;23.60;99.90;;;;;;5050733;28;20044;-85
2023/08/23 12:00:38;;;;;;;6.32;2.58;;;23.50;99.90;;;;;;5041665;28;20334;-84
2023/08/23 12:03:04;;;;;;;5.57;2.28;;;23.40;99.90;;;;;;5042354;28;20050;-84
2023/08/23 12:05:29;;;;;;;5.13;1.80;;;23.20;99.90;;;;;;5035228;28;20036;-84
2023/08/23 12:07:55;;;;;;;4.97;2.03;;;23.10;99.90;;;;;;5044718;28;20400;-84
2023/08/23 12:10:21;;;;;;;5.00;2.05;;;23.10;99.90;;;;;;5053078;28;20485;-84
2023/08/23 12:12:47;;;;;;;7.72;1.85;;;23.00;99.90;;;;;;5045580;28;20397;-83
2023/08/23 12:15:12;;;;;;;4.82;2.10;;;22.90;99.90;;;;;;5035606;28;20137;-84
2023/08/23 12:17:38;;;;;;;2.97;1.60;;;22.90;99.90;;;;;;5035159;28;20045;-84
2023/08/23 12:20:07;;;;;;;5.78;1.80;;;22.00;99.90;;;;;;5043520;28;20508;-85
2023/08/23 12:22:33;;;;;;;7.78;2.30;;;23.00;99.90;;;;;;5043796;28;20098;-84
2023/08/23 12:24:59;;;;;;;5.25;2.33;;;23.00;99.90;;;;;;5052956;28;20562;-84
2023/08/23 12:27:24;;;;;;;5.07;1.95;;;23.10;99.90;;;;;;5043918;28;20067;-84
2023/08/23 12:29:50;;;;;;;5.47;2.13;;;23.00;99.90;;;;;;5045672;28;20404;-84
2023/08/23 12:32:15;;;;;;;4.72;1.98;;;23.00;99.90;;;;;;5043071;28;20124;-83
2023/08/23 12:34:41;;;;;;;3.28;1.40;;;23.00;99.90;;;;;;5043723;28;20055;-84
2023/08/23 12:37:07;;;;;;;5.47;1.60;;;23.10;99.90;;;;;;5033648;28;20056;-85